< < Back
Terminal Aerodrome Forecast


Current Version              Previous Versions:   1  2  3  4  5  6  7  8  9  

Terminal Aerodrome Forecast

669
FTUS44 KMRX 281123
TAFCHA
TAF
KCHA 281123Z 2812/2912 02003KT P6SM BKN250
     FM281500 03006KT P6SM SCT060 BKN250
     FM290300 VRB02KT P6SM BKN050
     FM290600 00000KT 6SM -RA BKN050
     FM291000 04004KT 4SM -SHRA BKN040=

Latest METAR

882
SAUS80 KWBC 281600
MTRCHA
METAR KCHA 281553Z 36007KT 320V030 10SM FEW150 SCT250 17/06 A2997 RMK
AO2 SLP146 T01720061


USA.gov is the U.S. government's official web portal to all federal, state and local government web resources and services.